createdAt,value
2022-11-07T00:00:33.846Z,15.17
2022-11-07T00:03:04.470Z,15.87
2022-11-07T00:05:33.882Z,15.70
2022-11-07T00:08:02.968Z,15.23
2022-11-07T00:10:33.126Z,15.30
2022-11-07T00:13:02.114Z,15.23
2022-11-07T00:15:31.185Z,15.20
2022-11-07T00:18:00.276Z,15.03
2022-11-07T00:20:30.856Z,15.50
2022-11-07T00:22:59.561Z,15.37
2022-11-07T00:25:28.463Z,15.40
2022-11-07T00:27:57.695Z,15.57
2022-11-07T00:30:26.686Z,14.27
2022-11-07T00:33:00.009Z,14.57
2022-11-07T00:35:30.709Z,14.30
2022-11-07T00:37:59.628Z,14.77
2022-11-07T00:40:28.870Z,13.83
2022-11-07T00:42:58.343Z,13.97
2022-11-07T00:45:27.362Z,14.00
2022-11-07T00:47:56.529Z,13.53
2022-11-07T00:50:25.522Z,13.33
2022-11-07T00:52:58.341Z,14.03
2022-11-07T00:55:27.302Z,13.80
2022-11-07T00:57:57.043Z,13.43
2022-11-07T01:00:26.161Z,13.20
2022-11-07T01:03:10.075Z,13.67
2022-11-07T01:05:39.594Z,14.13
2022-11-07T01:08:10.025Z,13.90
2022-11-07T01:10:42.398Z,14.10
2022-11-07T01:13:11.629Z,13.43
2022-11-07T01:15:41.932Z,12.70
2022-11-07T01:18:11.153Z,12.67
2022-11-07T01:20:40.925Z,13.43
2022-11-07T01:23:11.694Z,13.03
2022-11-07T01:25:41.355Z,12.93
2022-11-07T01:28:11.657Z,12.03
2022-11-07T01:30:41.741Z,11.97
2022-11-07T01:33:10.758Z,12.27
2022-11-07T01:35:40.069Z,11.77
2022-11-07T01:38:09.066Z,12.70
2022-11-07T01:40:57.638Z,12.90
2022-11-07T01:43:43.137Z,13.23
2022-11-07T01:46:12.437Z,14.50
2022-11-07T01:48:44.435Z,14.10
2022-11-07T01:51:14.022Z,13.70
2022-11-07T01:53:43.375Z,13.80
2022-11-07T01:56:16.902Z,14.40
2022-11-07T01:58:47.666Z,14.70
2022-11-07T02:01:17.474Z,14.03
2022-11-07T02:03:48.020Z,13.77
2022-11-07T02:06:24.054Z,13.90
2022-11-07T02:08:54.214Z,13.20
2022-11-07T02:11:25.198Z,13.20
2022-11-07T02:13:54.061Z,12.80
2022-11-07T02:16:23.087Z,13.43
2022-11-07T02:18:52.190Z,12.70
2022-11-07T02:21:34.462Z,11.63
2022-11-07T02:24:15.699Z,10.27
2022-11-07T02:26:45.606Z,9.37
2022-11-07T02:29:14.698Z,8.83
2022-11-07T02:31:43.536Z,9.10
2022-11-07T02:34:12.266Z,8.77
2022-11-07T02:36:41.605Z,8.67
2022-11-07T02:39:11.008Z,8.63
2022-11-07T02:41:41.293Z,8.63
2022-11-07T02:44:13.428Z,8.40
2022-11-07T02:46:42.465Z,9.17
2022-11-07T02:49:11.369Z,8.30
2022-11-07T02:51:40.309Z,8.77
2022-11-07T02:54:09.033Z,9.07
2022-11-07T02:56:37.690Z,8.40
2022-11-07T02:59:08.102Z,8.67
2022-11-07T03:01:37.481Z,8.07
2022-11-07T03:04:06.294Z,8.83
2022-11-07T03:06:35.317Z,8.40
2022-11-07T03:09:04.308Z,8.57
2022-11-07T03:11:33.763Z,8.43
2022-11-07T03:14:02.666Z,7.80
2022-11-07T03:16:32.909Z,8.37
2022-11-07T03:19:01.626Z,8.60
2022-11-07T03:21:30.458Z,8.80
2022-11-07T03:24:00.024Z,7.87
2022-11-07T03:26:29.236Z,8.23
2022-11-07T03:28:59.334Z,7.97
2022-11-07T03:31:28.476Z,7.87
2022-11-07T03:33:58.573Z,8.03
2022-11-07T03:36:27.592Z,8.00
2022-11-07T03:38:56.290Z,8.50
2022-11-07T03:41:24.991Z,8.10
2022-11-07T03:43:53.978Z,7.97
2022-11-07T03:46:22.969Z,8.07
2022-11-07T03:48:52.153Z,8.10
2022-11-07T03:51:22.838Z,8.70
2022-11-07T03:53:51.633Z,7.97
2022-11-07T03:56:20.382Z,8.83
2022-11-07T03:58:49.066Z,7.60
2022-11-07T04:01:18.341Z,8.60
2022-11-07T04:03:47.457Z,7.67
2022-11-07T04:06:16.838Z,7.97
2022-11-07T04:08:47.107Z,8.50
2022-11-07T04:11:30.196Z,8.77
2022-11-07T04:14:16.550Z,8.40
2022-11-07T04:17:03.033Z,8.17
2022-11-07T04:19:32.060Z,8.13
2022-11-07T04:22:01.211Z,8.73
2022-11-07T04:24:31.363Z,8.67
2022-11-07T04:27:17.846Z,8.60
2022-11-07T04:29:46.942Z,8.83
2022-11-07T04:32:15.851Z,8.33
2022-11-07T04:34:44.893Z,8.07
2022-11-07T04:37:14.096Z,8.57
2022-11-07T04:39:44.564Z,8.30
2022-11-07T04:42:13.602Z,7.77
2022-11-07T04:44:42.639Z,8.70
2022-11-07T04:47:11.714Z,7.77
2022-11-07T04:49:40.697Z,8.23
2022-11-07T04:52:11.134Z,8.50
2022-11-07T04:54:40.022Z,8.40
2022-11-07T04:57:10.366Z,8.43
2022-11-07T04:59:39.389Z,8.50
2022-11-07T05:02:10.108Z,8.30
2022-11-07T05:04:39.497Z,8.30
2022-11-07T05:07:09.105Z,7.80
2022-11-07T05:09:38.069Z,8.53
2022-11-07T05:12:07.185Z,8.97
2022-11-07T05:14:37.441Z,9.00
2022-11-07T05:17:06.509Z,9.00
2022-11-07T05:19:35.577Z,9.23
2022-11-07T05:22:33.373Z,9.27
2022-11-07T05:25:02.405Z,9.67
2022-11-07T05:27:32.350Z,8.87
2022-11-07T05:30:02.846Z,9.00
2022-11-07T05:32:31.845Z,9.77
2022-11-07T05:35:00.914Z,9.60
2022-11-07T05:37:29.947Z,10.17
2022-11-07T05:39:58.997Z,9.43
2022-11-07T05:42:28.005Z,9.20
2022-11-07T05:44:57.139Z,9.23
2022-11-07T05:47:27.365Z,9.10
2022-11-07T05:49:56.318Z,9.33
2022-11-07T05:52:25.230Z,10.77
2022-11-07T05:54:54.219Z,9.33
2022-11-07T05:57:23.284Z,9.43
2022-11-07T05:59:52.369Z,9.40
2022-11-07T06:02:21.523Z,9.67
2022-11-07T06:04:51.989Z,9.17
2022-11-07T06:07:20.933Z,9.07
2022-11-07T06:09:50.025Z,9.37
2022-11-07T06:12:18.927Z,8.80
2022-11-07T06:14:48.013Z,9.40
2022-11-07T06:17:17.104Z,8.23
2022-11-07T06:19:46.051Z,9.40
2022-11-07T06:22:16.421Z,8.67
2022-11-07T06:24:45.391Z,9.37
2022-11-07T06:27:14.569Z,8.70
2022-11-07T06:29:43.589Z,8.50
2022-11-07T06:32:12.635Z,9.00
2022-11-07T06:34:41.972Z,8.80
2022-11-07T06:37:10.993Z,8.80
2022-11-07T06:39:41.309Z,8.80
2022-11-07T06:42:10.884Z,8.70
2022-11-07T06:44:40.635Z,8.27
2022-11-07T06:47:09.476Z,8.67
2022-11-07T06:49:38.397Z,8.80
2022-11-07T06:52:07.545Z,8.43
2022-11-07T06:54:36.877Z,8.57
2022-11-07T06:57:07.379Z,8.80
2022-11-07T06:59:36.440Z,8.63
2022-11-07T07:02:05.517Z,9.03
2022-11-07T07:04:34.655Z,8.77
2022-11-07T07:07:03.715Z,10.53
2022-11-07T07:09:33.213Z,10.33
2022-11-07T07:12:02.478Z,10.13
2022-11-07T07:14:33.149Z,10.33
2022-11-07T07:17:02.193Z,9.07
2022-11-07T07:19:31.260Z,9.37
2022-11-07T07:22:00.513Z,8.93
2022-11-07T07:24:29.572Z,8.47
2022-11-07T07:26:58.814Z,7.90
2022-11-07T07:29:27.721Z,7.77
2022-11-07T07:31:58.090Z,7.40
2022-11-07T07:34:27.089Z,7.93
2022-11-07T07:36:56.128Z,7.97
2022-11-07T07:39:27.164Z,8.73
2022-11-07T07:41:56.319Z,7.93
2022-11-07T07:44:26.337Z,8.07
2022-11-07T07:46:55.527Z,8.37
2022-11-07T07:49:26.157Z,8.57
2022-11-07T07:51:55.229Z,8.50
2022-11-07T07:54:24.161Z,8.30
2022-11-07T07:56:53.123Z,7.83
2022-11-07T07:59:22.441Z,7.80
2022-11-07T08:01:56.569Z,8.13
2022-11-07T08:04:27.847Z,7.93
2022-11-07T08:06:57.005Z,7.67
2022-11-07T08:09:25.926Z,8.23
2022-11-07T08:11:55.024Z,11.57
2022-11-07T08:14:24.149Z,8.73
2022-11-07T08:16:53.220Z,7.90
2022-11-07T08:19:22.394Z,7.33
2022-11-07T08:21:52.887Z,7.37
2022-11-07T08:24:22.356Z,7.27
2022-11-07T08:26:51.474Z,7.53
2022-11-07T08:29:20.718Z,7.67
2022-11-07T08:31:50.720Z,7.47
2022-11-07T08:34:19.875Z,7.70
2022-11-07T08:36:48.809Z,7.27
2022-11-07T08:39:19.289Z,6.87
2022-11-07T08:41:48.354Z,7.07
2022-11-07T08:44:17.600Z,7.03
2022-11-07T08:46:46.630Z,7.57
2022-11-07T08:49:15.878Z,6.73
2022-11-07T08:51:44.859Z,6.47
2022-11-07T08:54:14.513Z,7.87
2022-11-07T08:56:44.826Z,7.53
2022-11-07T08:59:13.951Z,7.10
2022-11-07T09:02:14.397Z,6.73
2022-11-07T09:04:31.983Z,6.70
2022-11-07T09:07:00.820Z,6.67
2022-11-07T09:09:29.808Z,6.57
2022-11-07T09:12:00.101Z,6.83
2022-11-07T09:14:29.050Z,7.03
2022-11-07T09:16:59.437Z,6.10
2022-11-07T09:19:28.809Z,6.30
2022-11-07T09:21:58.130Z,6.00
2022-11-07T09:24:27.379Z,6.20
2022-11-07T09:26:56.298Z,6.47
2022-11-07T09:29:26.511Z,7.40
2022-11-07T09:31:55.444Z,6.20
2022-11-07T09:34:25.921Z,5.63
2022-11-07T09:36:55.320Z,4.97
2022-11-07T09:39:24.365Z,5.23
2022-11-07T09:42:00.513Z,5.50
2022-11-07T09:44:49.944Z,6.37
2022-11-07T09:47:22.554Z,6.43
2022-11-07T09:49:53.677Z,5.97
2022-11-07T09:52:29.565Z,5.50
2022-11-07T09:55:04.039Z,5.17
2022-11-07T09:57:36.585Z,6.90
2022-11-07T10:00:11.261Z,7.63
2022-11-07T10:02:44.534Z,4.97
2022-11-07T10:05:16.798Z,5.30
2022-11-07T10:07:58.708Z,5.53
2022-11-07T10:10:38.327Z,5.90
2022-11-07T10:13:45.501Z,5.30
2022-11-07T10:16:24.618Z,5.53
2022-11-07T10:19:03.198Z,5.00
2022-11-07T10:21:42.279Z,5.17
2022-11-07T10:24:36.386Z,5.47
2022-11-07T10:27:09.991Z,5.33
2022-11-07T10:29:45.190Z,5.37
2022-11-07T10:32:22.314Z,7.40
2022-11-07T10:34:57.909Z,6.50
2022-11-07T10:37:27.005Z,5.80
2022-11-07T10:39:56.296Z,5.40
2022-11-07T10:42:30.516Z,6.37
2022-11-07T10:45:00.375Z,4.90
2022-11-07T10:47:31.145Z,5.30
2022-11-07T10:50:02.077Z,5.33
2022-11-07T10:52:31.437Z,6.23
2022-11-07T10:55:09.033Z,6.10
2022-11-07T10:57:38.584Z,6.07
2022-11-07T11:00:24.220Z,6.10
2022-11-07T11:02:56.472Z,6.10
2022-11-07T11:05:33.758Z,7.33
2022-11-07T11:08:15.209Z,5.50
2022-11-07T11:10:44.969Z,14.97
2022-11-07T11:13:27.352Z,8.20
2022-11-07T11:16:00.060Z,6.57
2022-11-07T11:18:34.705Z,5.70
2022-11-07T11:21:06.760Z,5.17
2022-11-07T11:23:38.617Z,5.10
2022-11-07T11:26:09.101Z,4.90
2022-11-07T11:28:43.407Z,4.83
2022-11-07T11:31:16.455Z,4.83
2022-11-07T11:33:53.647Z,5.07
2022-11-07T11:36:27.690Z,5.20
2022-11-07T11:38:56.983Z,4.80
2022-11-07T11:41:32.411Z,6.47
2022-11-07T11:44:08.129Z,4.80
2022-11-07T11:46:41.505Z,7.40
2022-11-07T11:49:17.827Z,6.57
2022-11-07T11:51:51.019Z,5.70
2022-11-07T11:54:20.200Z,5.07
2022-11-07T11:56:54.226Z,5.17
2022-11-07T11:59:58.641Z,5.20
2022-11-07T12:03:01.539Z,5.27
2022-11-07T12:06:05.999Z,5.13
2022-11-07T12:08:56.429Z,5.10
2022-11-07T12:11:34.298Z,5.40
2022-11-07T12:14:14.743Z,4.53
2022-11-07T12:16:52.570Z,5.07
2022-11-07T12:19:29.565Z,5.03
2022-11-07T12:22:09.070Z,4.77
2022-11-07T12:24:47.299Z,4.57
2022-11-07T12:27:27.072Z,5.73
2022-11-07T12:30:07.513Z,5.57
2022-11-07T12:32:47.353Z,5.30
2022-11-07T12:35:36.897Z,5.63
2022-11-07T12:38:40.087Z,5.27
2022-11-07T12:41:17.393Z,8.13
2022-11-07T12:43:54.741Z,4.90
2022-11-07T12:46:31.094Z,6.73
2022-11-07T12:49:13.752Z,5.27
2022-11-07T12:51:52.831Z,5.53
2022-11-07T12:54:47.673Z,5.53
2022-11-07T12:57:20.763Z,5.40
2022-11-07T12:59:54.081Z,5.63
2022-11-07T13:02:54.797Z,5.67
2022-11-07T13:05:40.929Z,6.23
2022-11-07T13:08:17.961Z,5.37
2022-11-07T13:10:57.334Z,5.50
2022-11-07T13:13:34.995Z,5.07
2022-11-07T13:16:15.541Z,5.67
2022-11-07T13:18:45.083Z,6.30
2022-11-07T13:21:14.255Z,5.23
2022-11-07T13:23:43.550Z,4.93
2022-11-07T13:26:45.128Z,4.93
2022-11-07T13:29:04.538Z,5.07
2022-11-07T13:31:37.227Z,4.90
2022-11-07T13:34:25.185Z,5.40
2022-11-07T13:37:01.237Z,5.33
2022-11-07T13:39:31.757Z,5.83
2022-11-07T13:42:02.825Z,5.60
2022-11-07T13:44:36.993Z,6.17
2022-11-07T13:47:11.483Z,6.13
2022-11-07T13:49:45.029Z,5.37
2022-11-07T13:52:21.458Z,5.03
2022-11-07T13:54:58.226Z,4.67
2022-11-07T13:57:32.254Z,4.73
2022-11-07T14:00:05.685Z,4.77
2022-11-07T14:02:42.699Z,4.83
2022-11-07T14:05:17.712Z,5.03
2022-11-07T14:07:50.433Z,5.53
2022-11-07T14:10:26.914Z,5.50
2022-11-07T14:13:04.021Z,5.00
2022-11-07T14:15:33.347Z,5.27
2022-11-07T14:18:02.703Z,5.53
2022-11-07T14:20:31.790Z,5.27
2022-11-07T14:23:02.082Z,5.03
2022-11-07T14:25:33.076Z,5.07
2022-11-07T14:28:07.866Z,4.63
2022-11-07T14:30:42.375Z,4.70
2022-11-07T14:33:19.596Z,6.00
2022-11-07T14:35:51.137Z,5.73
2022-11-07T14:38:24.950Z,5.67
2022-11-07T14:40:59.978Z,5.33
2022-11-07T14:43:31.602Z,5.90
2022-11-07T14:46:13.337Z,5.30
2022-11-07T14:48:44.785Z,6.13
2022-11-07T14:51:16.321Z,5.10
2022-11-07T14:53:54.632Z,5.73
2022-11-07T14:56:29.685Z,5.80
2022-11-07T14:59:00.464Z,5.70
2022-11-07T15:01:32.015Z,6.07
2022-11-07T15:04:05.163Z,5.47
2022-11-07T15:06:41.824Z,6.37
2022-11-07T15:09:12.254Z,5.77
2022-11-07T15:11:43.389Z,5.87
2022-11-07T15:14:24.856Z,6.10
2022-11-07T15:16:55.481Z,5.60
2022-11-07T15:19:25.375Z,6.20
2022-11-07T15:21:56.870Z,6.43
2022-11-07T15:24:33.411Z,7.17
2022-11-07T15:27:03.617Z,6.87
2022-11-07T15:29:35.907Z,7.37
2022-11-07T15:32:14.794Z,7.17
2022-11-07T15:37:33.346Z,7.13
2022-11-07T15:40:02.389Z,7.90
2022-11-07T15:42:31.497Z,6.80
2022-11-07T15:45:01.805Z,6.67
2022-11-07T15:47:30.966Z,6.00
2022-11-07T15:49:59.990Z,5.90
2022-11-07T15:52:28.918Z,6.30
2022-11-07T15:54:58.018Z,5.93
2022-11-07T15:57:26.937Z,5.83
2022-11-07T15:59:55.978Z,7.43
2022-11-07T16:02:26.465Z,6.83
2022-11-07T16:04:55.418Z,6.83
2022-11-07T16:07:24.314Z,7.20
2022-11-07T16:09:53.177Z,6.73
2022-11-07T16:12:22.044Z,6.23
2022-11-07T16:14:50.794Z,7.07
2022-11-07T16:17:20.409Z,6.60
2022-11-07T16:19:50.679Z,7.03
2022-11-07T16:22:19.519Z,7.80
2022-11-07T16:24:48.631Z,6.70
2022-11-07T16:27:19.082Z,6.67
2022-11-07T16:29:48.376Z,6.60
2022-11-07T16:32:18.667Z,7.10
2022-11-07T16:34:48.573Z,7.23
2022-11-07T16:37:18.866Z,9.93
2022-11-07T16:39:47.855Z,11.20
2022-11-07T16:42:16.962Z,10.07
2022-11-07T16:44:45.910Z,11.50
2022-11-07T16:47:15.886Z,16.37
2022-11-07T16:49:44.968Z,12.37
2022-11-07T16:52:15.889Z,13.37
2022-11-07T16:54:46.814Z,12.57
2022-11-07T16:57:17.825Z,10.50
2022-11-07T16:59:47.613Z,10.80
2022-11-07T17:02:21.029Z,10.27
2022-11-07T17:04:53.285Z,10.17
2022-11-07T17:07:24.347Z,10.73
2022-11-07T17:09:54.910Z,11.73
2022-11-07T17:12:24.085Z,13.10
2022-11-07T17:14:54.065Z,11.80
2022-11-07T17:17:23.038Z,13.03
2022-11-07T17:19:51.913Z,11.87
2022-11-07T17:22:20.673Z,11.73
2022-11-07T17:24:49.585Z,11.90
2022-11-07T17:27:24.998Z,11.57
2022-11-07T17:29:55.214Z,11.17
2022-11-07T17:32:24.648Z,11.23
2022-11-07T17:35:11.038Z,10.77
2022-11-07T17:37:42.594Z,9.97
2022-11-07T17:40:19.215Z,10.50
2022-11-07T17:42:49.831Z,8.67
2022-11-07T17:45:18.867Z,8.77
2022-11-07T17:47:49.807Z,8.90
2022-11-07T17:50:20.806Z,9.13
2022-11-07T17:52:52.142Z,9.30
2022-11-07T17:55:22.075Z,9.20
2022-11-07T17:57:52.435Z,9.87
2022-11-07T18:00:24.290Z,10.10
2022-11-07T18:02:53.723Z,10.77
2022-11-07T18:05:31.763Z,9.60
2022-11-07T18:08:02.516Z,9.07
2022-11-07T18:10:32.808Z,9.20
2022-11-07T18:13:03.056Z,9.50
2022-11-07T18:15:33.834Z,9.10
2022-11-07T18:18:06.811Z,9.03
2022-11-07T18:20:38.701Z,9.33
2022-11-07T18:23:08.044Z,12.17
2022-11-07T18:25:37.211Z,14.67
2022-11-07T18:28:07.755Z,15.00
2022-11-07T18:30:37.014Z,13.63
2022-11-07T18:33:05.930Z,10.77
2022-11-07T18:35:34.938Z,10.53
2022-11-07T18:38:03.781Z,10.17
2022-11-07T18:40:35.286Z,11.07
2022-11-07T18:43:04.975Z,13.50
2022-11-07T18:45:35.727Z,11.63
2022-11-07T18:48:05.094Z,9.67
2022-11-07T18:50:36.865Z,9.67
2022-11-07T18:53:05.870Z,9.43
2022-11-07T18:55:35.150Z,8.17
2022-11-07T18:58:04.294Z,11.03
2022-11-07T19:00:37.473Z,8.30
2022-11-07T19:03:06.519Z,8.87
2022-11-07T19:05:40.986Z,8.57
2022-11-07T19:08:10.338Z,8.67
2022-11-07T19:10:39.490Z,9.10
2022-11-07T19:13:08.843Z,8.93
2022-11-07T19:15:40.785Z,12.17
2022-11-07T19:18:09.827Z,13.63
2022-11-07T19:20:41.172Z,13.47
2022-11-07T19:23:11.053Z,13.73
2022-11-07T19:25:40.728Z,15.47
2022-11-07T19:28:10.861Z,15.97
2022-11-07T19:30:41.526Z,18.03
2022-11-07T19:33:11.449Z,18.10
2022-11-07T19:35:43.188Z,20.93
2022-11-07T19:38:14.054Z,21.23
2022-11-07T19:40:50.087Z,21.00
2022-11-07T19:43:19.595Z,15.17
2022-11-07T19:45:51.334Z,15.67
2022-11-07T19:48:20.517Z,14.03
2022-11-07T19:50:49.574Z,11.87
2022-11-07T19:53:18.991Z,11.83
2022-11-07T19:55:48.387Z,10.23
2022-11-07T19:58:17.680Z,9.67
2022-11-07T20:00:46.744Z,9.47
2022-11-07T20:03:17.380Z,10.03
2022-11-07T20:05:48.884Z,9.60
2022-11-07T20:08:18.109Z,10.53
2022-11-07T20:10:47.513Z,9.70
2022-11-07T20:13:16.869Z,9.33
2022-11-07T20:15:45.989Z,10.33
2022-11-07T20:18:16.310Z,10.73
2022-11-07T20:20:45.256Z,10.63
2022-11-07T20:23:14.348Z,10.80
2022-11-07T20:25:43.748Z,10.43
2022-11-07T20:28:12.754Z,9.33
2022-11-07T20:30:43.290Z,9.20
2022-11-07T20:33:12.779Z,10.60
2022-11-07T20:35:44.467Z,8.80
2022-11-07T20:38:13.611Z,9.50
2022-11-07T20:40:42.617Z,9.20
2022-11-07T20:43:12.062Z,10.57
2022-11-07T20:45:42.179Z,9.97
2022-11-07T20:48:11.603Z,8.83
2022-11-07T20:50:40.990Z,8.17
2022-11-07T20:53:11.358Z,8.90
2022-11-07T20:55:41.552Z,9.00
2022-11-07T20:58:10.983Z,8.07
2022-11-07T21:00:42.506Z,7.80
2022-11-07T21:03:15.972Z,7.50
2022-11-07T21:05:45.283Z,8.30
2022-11-07T21:08:15.653Z,7.50
2022-11-07T21:10:45.001Z,7.83
2022-11-07T21:13:14.767Z,8.00
2022-11-07T21:16:05.038Z,7.97
2022-11-07T21:19:14.111Z,9.73
2022-11-07T21:22:04.087Z,9.43
2022-11-07T21:24:34.492Z,8.33
2022-11-07T21:27:03.855Z,8.80
2022-11-07T21:29:33.448Z,8.87
2022-11-07T21:32:02.472Z,10.00
2022-11-07T21:34:31.234Z,9.30
2022-11-07T21:37:00.253Z,9.67
2022-11-07T21:39:29.397Z,9.27
2022-11-07T21:41:59.418Z,9.20
2022-11-07T21:44:28.067Z,8.23
2022-11-07T21:46:56.736Z,8.73
2022-11-07T21:49:25.508Z,7.73
2022-11-07T21:51:54.434Z,8.80
2022-11-07T21:54:23.047Z,7.90
2022-11-07T21:56:51.656Z,8.33
2022-11-07T21:59:21.761Z,8.23
2022-11-07T22:01:50.905Z,7.80
2022-11-07T22:04:19.701Z,7.53
2022-11-07T22:06:48.546Z,8.20
2022-11-07T22:09:19.420Z,7.83
2022-11-07T22:11:49.024Z,7.87
2022-11-07T22:14:20.325Z,8.40
2022-11-07T22:16:51.623Z,9.03
2022-11-07T22:19:20.383Z,7.90
2022-11-07T22:21:49.940Z,8.40
2022-11-07T22:24:18.636Z,7.73
2022-11-07T22:26:47.393Z,7.63
2022-11-07T22:29:16.745Z,8.00
2022-11-07T22:31:45.724Z,7.87
2022-11-07T22:34:16.048Z,7.90
2022-11-07T22:36:45.045Z,7.67
2022-11-07T22:39:13.896Z,7.87
2022-11-07T22:41:42.717Z,8.27
2022-11-07T22:44:11.598Z,8.30
2022-11-07T22:46:40.659Z,8.27
2022-11-07T22:49:10.701Z,8.50
2022-11-07T22:51:42.104Z,8.77
2022-11-07T22:54:13.684Z,8.93
2022-11-07T22:56:42.731Z,8.33
2022-11-07T22:59:12.877Z,8.90
2022-11-07T23:01:43.277Z,8.40
2022-11-07T23:04:15.621Z,8.40
2022-11-07T23:06:46.364Z,8.10
2022-11-07T23:09:16.312Z,9.00
2022-11-07T23:11:47.457Z,8.53
2022-11-07T23:14:19.732Z,8.43
2022-11-07T23:16:50.641Z,7.77
2022-11-07T23:19:22.004Z,8.23
2022-11-07T23:21:52.493Z,8.57
2022-11-07T23:24:21.636Z,7.90
2022-11-07T23:26:50.807Z,8.30
2022-11-07T23:29:22.810Z,8.70
2022-11-07T23:31:52.497Z,8.10
2022-11-07T23:34:23.036Z,8.47
2022-11-07T23:36:53.800Z,8.10
2022-11-07T23:39:25.901Z,8.50
2022-11-07T23:41:54.778Z,8.40
2022-11-07T23:44:23.526Z,7.73
2022-11-07T23:47:09.812Z,8.77
2022-11-07T23:49:56.400Z,9.33
2022-11-07T23:52:26.864Z,10.17
2022-11-07T23:55:13.335Z,9.77
2022-11-07T23:57:56.453Z,10.40
